sensor_id;sensor_type;location;lat;lon;timestamp;pressure;altitude;pressure_sealevel;temperature;humidity
967;BME280;56108;48.730;9.304;2022-07-29T00:01:46;97454.72;;;17.36;100.00
967;BME280;56108;48.730;9.304;2022-07-29T00:03:54;97453.34;;;17.32;100.00
967;BME280;56108;48.730;9.304;2022-07-29T00:06:02;97453.50;;;17.30;100.00
967;BME280;56108;48.730;9.304;2022-07-29T00:08:10;97454.34;;;17.31;100.00
967;BME280;56108;48.730;9.304;2022-07-29T00:10:21;97449.81;;;17.31;100.00
967;BME280;56108;48.730;9.304;2022-07-29T00:14:36;97450.50;;;17.33;100.00
967;BME280;56108;48.730;9.304;2022-07-29T00:16:49;97441.66;;;17.41;100.00
967;BME280;56108;48.730;9.304;2022-07-29T00:18:57;97437.91;;;17.34;100.00
967;BME280;56108;48.730;9.304;2022-07-29T00:21:06;97441.84;;;17.39;100.00
967;BME280;56108;48.730;9.304;2022-07-29T00:23:14;97437.75;;;17.35;100.00
967;BME280;56108;48.730;9.304;2022-07-29T00:25:22;97426.53;;;17.40;100.00
967;BME280;56108;48.730;9.304;2022-07-29T00:27:31;97436.00;;;17.44;100.00
967;BME280;56108;48.730;9.304;2022-07-29T00:29:38;97436.97;;;17.43;100.00
967;BME280;56108;48.730;9.304;2022-07-29T00:31:52;97432.97;;;17.47;100.00
967;BME280;56108;48.730;9.304;2022-07-29T00:34:00;97430.00;;;17.50;100.00
967;BME280;56108;48.730;9.304;2022-07-29T00:36:09;97427.97;;;17.52;100.00
967;BME280;56108;48.730;9.304;2022-07-29T00:38:17;97427.81;;;17.54;100.00
967;BME280;56108;48.730;9.304;2022-07-29T00:40:28;97427.31;;;17.50;100.00
967;BME280;56108;48.730;9.304;2022-07-29T00:42:44;97431.84;;;17.50;100.00
967;BME280;56108;48.730;9.304;2022-07-29T00:44:52;97431.97;;;17.48;100.00
967;BME280;56108;48.730;9.304;2022-07-29T00:47:03;97424.63;;;17.50;100.00
967;BME280;56108;48.730;9.304;2022-07-29T00:49:35;97424.63;;;17.50;100.00
967;BME280;56108;48.730;9.304;2022-07-29T00:51:56;97425.91;;;17.46;100.00
967;BME280;56108;48.730;9.304;2022-07-29T00:54:05;97429.59;;;17.45;100.00
967;BME280;56108;48.730;9.304;2022-07-29T00:56:13;97424.13;;;17.37;100.00
967;BME280;56108;48.730;9.304;2022-07-29T00:58:22;97424.69;;;17.40;100.00
967;BME280;56108;48.730;9.304;2022-07-29T01:00:30;97423.47;;;17.35;100.00
967;BME280;56108;48.730;9.304;2022-07-29T01:02:41;97423.53;;;17.25;100.00
967;BME280;56108;48.730;9.304;2022-07-29T01:04:49;97423.34;;;17.27;100.00
967;BME280;56108;48.730;9.304;2022-07-29T01:06:58;97418.31;;;17.24;100.00
967;BME280;56108;48.730;9.304;2022-07-29T01:09:08;97412.53;;;17.18;100.00
967;BME280;56108;48.730;9.304;2022-07-29T01:11:17;97415.13;;;17.10;100.00
967;BME280;56108;48.730;9.304;2022-07-29T01:13:26;97404.97;;;17.04;100.00
967;BME280;56108;48.730;9.304;2022-07-29T01:15:40;97401.91;;;16.99;100.00
967;BME280;56108;48.730;9.304;2022-07-29T01:18:02;97400.38;;;16.97;100.00
967;BME280;56108;48.730;9.304;2022-07-29T01:20:16;97399.38;;;16.98;100.00
967;BME280;56108;48.730;9.304;2022-07-29T01:22:28;97398.97;;;16.92;100.00
967;BME280;56108;48.730;9.304;2022-07-29T01:24:58;97394.44;;;16.93;100.00
967;BME280;56108;48.730;9.304;2022-07-29T01:27:26;97400.28;;;16.88;100.00
967;BME280;56108;48.730;9.304;2022-07-29T01:29:45;97400.66;;;16.93;100.00
967;BME280;56108;48.730;9.304;2022-07-29T01:32:00;97399.09;;;16.91;100.00
967;BME280;56108;48.730;9.304;2022-07-29T01:34:13;97398.97;;;16.92;100.00
967;BME280;56108;48.730;9.304;2022-07-29T01:36:29;97403.19;;;16.95;100.00
967;BME280;56108;48.730;9.304;2022-07-29T01:38:39;97399.09;;;16.91;100.00
967;BME280;56108;48.730;9.304;2022-07-29T01:40:52;97391.91;;;16.91;100.00
967;BME280;56108;48.730;9.304;2022-07-29T01:43:07;97382.84;;;16.92;100.00
967;BME280;56108;48.730;9.304;2022-07-29T01:45:23;97392.88;;;16.90;100.00
967;BME280;56108;48.730;9.304;2022-07-29T01:47:37;97389.53;;;16.88;100.00
967;BME280;56108;48.730;9.304;2022-07-29T01:49:49;97387.28;;;16.84;100.00
967;BME280;56108;48.730;9.304;2022-07-29T01:52:03;97395.19;;;16.85;100.00
967;BME280;56108;48.730;9.304;2022-07-29T01:54:18;97392.81;;;16.82;100.00
967;BME280;56108;48.730;9.304;2022-07-29T01:56:28;97396.63;;;16.80;100.00
967;BME280;56108;48.730;9.304;2022-07-29T01:58:41;97395.78;;;16.79;100.00
967;BME280;56108;48.730;9.304;2022-07-29T02:00:54;97394.94;;;16.79;100.00
967;BME280;56108;48.730;9.304;2022-07-29T02:03:09;97396.63;;;16.80;100.00
967;BME280;56108;48.730;9.304;2022-07-29T02:05:20;97390.75;;;16.76;100.00
967;BME280;56108;48.730;9.304;2022-07-29T02:07:31;97390.75;;;16.76;100.00
967;BME280;56108;48.730;9.304;2022-07-29T02:09:41;97394.25;;;16.77;100.00
967;BME280;56108;48.730;9.304;2022-07-29T02:11:52;97390.19;;;16.73;100.00
967;BME280;56108;48.730;9.304;2022-07-29T02:14:01;97387.22;;;16.66;100.00
967;BME280;56108;48.730;9.304;2022-07-29T02:16:14;97381.69;;;16.67;100.00
967;BME280;56108;48.730;9.304;2022-07-29T02:18:25;97386.66;;;16.62;100.00
967;BME280;56108;48.730;9.304;2022-07-29T02:20:36;97385.81;;;16.62;100.00
967;BME280;56108;48.730;9.304;2022-07-29T02:22:46;97379.22;;;16.56;100.00
967;BME280;56108;48.730;9.304;2022-07-29T02:24:55;97385.97;;;16.60;100.00
967;BME280;56108;48.730;9.304;2022-07-29T02:27:09;97384.25;;;16.59;100.00
967;BME280;56108;48.730;9.304;2022-07-29T02:29:20;97376.38;;;16.58;100.00
967;BME280;56108;48.730;9.304;2022-07-29T02:31:33;97382.91;;;16.55;100.00
967;BME280;56108;48.730;9.304;2022-07-29T02:33:43;97383.88;;;16.54;100.00
967;BME280;56108;48.730;9.304;2022-07-29T02:35:52;97377.25;;;16.49;100.00
967;BME280;56108;48.730;9.304;2022-07-29T02:38:03;97383.63;;;16.48;100.00
967;BME280;56108;48.730;9.304;2022-07-29T02:40:23;97382.50;;;16.50;100.00
967;BME280;56108;48.730;9.304;2022-07-29T02:42:32;97381.53;;;16.41;100.00
967;BME280;56108;48.730;9.304;2022-07-29T02:44:44;97382.78;;;16.47;100.00
967;BME280;56108;48.730;9.304;2022-07-29T02:47:02;97377.84;;;16.42;100.00
967;BME280;56108;48.730;9.304;2022-07-29T02:49:15;97375.59;;;16.38;100.00
967;BME280;56108;48.730;9.304;2022-07-29T02:51:32;97373.63;;;16.40;100.00
967;BME280;56108;48.730;9.304;2022-07-29T02:53:51;97372.78;;;16.39;100.00
967;BME280;56108;48.730;9.304;2022-07-29T02:56:07;97375.91;;;16.35;100.00
967;BME280;56108;48.730;9.304;2022-07-29T02:58:24;97379.13;;;16.38;100.00
967;BME280;56108;48.730;9.304;2022-07-29T03:00:37;97373.91;;;16.37;100.00
967;BME280;56108;48.730;9.304;2022-07-29T03:02:51;97380.44;;;16.34;100.00
967;BME280;56108;48.730;9.304;2022-07-29T03:05:02;97378.59;;;16.35;100.00
967;BME280;56108;48.730;9.304;2022-07-29T03:07:15;97388.63;;;16.33;100.00
967;BME280;56108;48.730;9.304;2022-07-29T03:09:26;97380.03;;;16.29;100.00
967;BME280;56108;48.730;9.304;2022-07-29T03:11:36;97375.97;;;16.25;100.00
967;BME280;56108;48.730;9.304;2022-07-29T03:13:54;97378.47;;;16.27;100.00
967;BME280;56108;48.730;9.304;2022-07-29T03:16:05;97383.56;;;16.30;100.00
967;BME280;56108;48.730;9.304;2022-07-29T03:18:16;97382.84;;;16.28;100.00
967;BME280;56108;48.730;9.304;2022-07-29T03:20:24;97386.69;;;16.25;100.00
967;BME280;56108;48.730;9.304;2022-07-29T03:22:32;97388.38;;;16.26;100.00
967;BME280;56108;48.730;9.304;2022-07-29T03:24:41;97386.97;;;16.22;100.00
967;BME280;56108;48.730;9.304;2022-07-29T03:26:51;97392.66;;;16.19;100.00
967;BME280;56108;48.730;9.304;2022-07-29T03:29:01;97382.41;;;16.32;100.00
967;BME280;56108;48.730;9.304;2022-07-29T03:31:11;97386.78;;;16.33;100.00
967;BME280;56108;48.730;9.304;2022-07-29T03:33:21;97380.16;;;16.28;100.00
967;BME280;56108;48.730;9.304;2022-07-29T03:35:29;97379.06;;;16.21;100.00
967;BME280;56108;48.730;9.304;2022-07-29T03:37:38;97377.38;;;16.20;100.00
967;BME280;56108;48.730;9.304;2022-07-29T03:39:46;97383.44;;;16.22;100.00
967;BME280;56108;48.730;9.304;2022-07-29T03:41:58;97384.84;;;16.26;100.00
967;BME280;56108;48.730;9.304;2022-07-29T03:44:08;97382.16;;;16.26;100.00
967;BME280;56108;48.730;9.304;2022-07-29T03:46:17;97383.28;;;16.23;100.00
967;BME280;56108;48.730;9.304;2022-07-29T03:48:33;97379.91;;;16.21;100.00
967;BME280;56108;48.730;9.304;2022-07-29T03:50:43;97385.44;;;16.20;100.00
967;BME280;56108;48.730;9.304;2022-07-29T03:52:52;97385.69;;;16.26;100.00
967;BME280;56108;48.730;9.304;2022-07-29T03:55:01;97388.66;;;16.23;100.00
967;BME280;56108;48.730;9.304;2022-07-29T03:57:13;97394.03;;;16.23;100.00
967;BME280;56108;48.730;9.304;2022-07-29T03:59:27;97389.06;;;16.28;100.00
967;BME280;56108;48.730;9.304;2022-07-29T04:01:37;97392.75;;;16.27;100.00
967;BME280;56108;48.730;9.304;2022-07-29T04:03:48;97388.22;;;16.28;100.00
967;BME280;56108;48.730;9.304;2022-07-29T04:06:01;97398.53;;;16.32;100.00
967;BME280;56108;48.730;9.304;2022-07-29T04:08:10;97389.34;;;16.35;100.00
967;BME280;56108;48.730;9.304;2022-07-29T04:10:18;97401.63;;;16.37;100.00
967;BME280;56108;48.730;9.304;2022-07-29T04:12:35;97401.19;;;16.42;100.00
967;BME280;56108;48.730;9.304;2022-07-29T04:14:44;97403.00;;;16.51;100.00
967;BME280;56108;48.730;9.304;2022-07-29T04:16:52;97405.50;;;16.53;100.00
967;BME280;56108;48.730;9.304;2022-07-29T04:19:03;97406.75;;;16.58;100.00
967;BME280;56108;48.730;9.304;2022-07-29T04:21:11;97411.97;;;16.60;100.00
967;BME280;56108;48.730;9.304;2022-07-29T04:23:19;97409.84;;;16.63;100.00
967;BME280;56108;48.730;9.304;2022-07-29T04:25:27;97417.59;;;16.76;100.00
967;BME280;56108;48.730;9.304;2022-07-29T04:27:38;97421.13;;;16.77;100.00
967;BME280;56108;48.730;9.304;2022-07-29T04:30:11;97419.53;;;16.84;100.00
967;BME280;56108;48.730;9.304;2022-07-29T04:32:21;97418.47;;;16.94;100.00
967;BME280;56108;48.730;9.304;2022-07-29T04:34:32;97422.75;;;17.15;100.00
967;BME280;56108;48.730;9.304;2022-07-29T04:36:41;97418.53;;;17.30;100.00
967;BME280;56108;48.730;9.304;2022-07-29T04:38:50;97419.22;;;17.50;100.00
967;BME280;56108;48.730;9.304;2022-07-29T04:40:59;97425.84;;;17.91;99.29
967;BME280;56108;48.730;9.304;2022-07-29T04:43:07;97429.69;;;18.15;96.81
967;BME280;56108;48.730;9.304;2022-07-29T04:45:21;97435.06;;;18.67;94.39
967;BME280;56108;48.730;9.304;2022-07-29T04:47:30;97443.94;;;18.85;91.47
967;BME280;56108;48.730;9.304;2022-07-29T04:49:48;97454.16;;;19.74;88.02
967;BME280;56108;48.730;9.304;2022-07-29T04:51:59;97454.16;;;20.15;86.01
967;BME280;56108;48.730;9.304;2022-07-29T04:54:07;97460.34;;;20.56;84.09
967;BME280;56108;48.730;9.304;2022-07-29T04:56:15;97455.25;;;20.62;82.58
967;BME280;56108;48.730;9.304;2022-07-29T04:58:23;97461.50;;;19.56;83.08
967;BME280;56108;48.730;9.304;2022-07-29T05:00:31;97458.38;;;19.18;85.79
967;BME280;56108;48.730;9.304;2022-07-29T05:02:39;97461.91;;;19.11;87.15
967;BME280;56108;48.730;9.304;2022-07-29T05:04:50;97455.91;;;19.41;86.48
967;BME280;56108;48.730;9.304;2022-07-29T05:06:58;97465.97;;;19.90;84.48
967;BME280;56108;48.730;9.304;2022-07-29T05:09:06;97466.44;;;19.61;85.56
967;BME280;56108;48.730;9.304;2022-07-29T05:11:14;97462.94;;;20.01;84.17
967;BME280;56108;48.730;9.304;2022-07-29T05:13:25;97465.94;;;20.55;81.25
967;BME280;56108;48.730;9.304;2022-07-29T05:15:54;97465.59;;;21.45;77.00
967;BME280;56108;48.730;9.304;2022-07-29T05:18:05;97468.69;;;22.33;73.51
967;BME280;56108;48.730;9.304;2022-07-29T05:20:16;97467.34;;;23.26;70.06
967;BME280;56108;48.730;9.304;2022-07-29T05:22:27;97465.59;;;24.12;66.58
967;BME280;56108;48.730;9.304;2022-07-29T05:24:35;97460.59;;;25.28;61.61
967;BME280;56108;48.730;9.304;2022-07-29T05:26:43;97460.72;;;24.51;63.01
967;BME280;56108;48.730;9.304;2022-07-29T05:28:51;97467.28;;;23.92;66.08
967;BME280;56108;48.730;9.304;2022-07-29T05:30:59;97465.63;;;23.91;65.37
967;BME280;56108;48.730;9.304;2022-07-29T05:33:07;97470.44;;;23.74;64.82
967;BME280;56108;48.730;9.304;2022-07-29T05:35:38;97468.22;;;23.63;67.19
967;BME280;56108;48.730;9.304;2022-07-29T05:37:46;97472.66;;;25.12;63.72
967;BME280;56108;48.730;9.304;2022-07-29T05:39:57;97473.50;;;25.13;60.80
967;BME280;56108;48.730;9.304;2022-07-29T05:42:08;97472.78;;;25.04;60.14
967;BME280;56108;48.730;9.304;2022-07-29T05:44:17;97473.72;;;24.90;60.67
967;BME280;56108;48.730;9.304;2022-07-29T05:46:29;97476.41;;;24.49;61.50
967;BME280;56108;48.730;9.304;2022-07-29T05:48:38;97482.22;;;23.45;66.55
967;BME280;56108;48.730;9.304;2022-07-29T05:50:51;97478.09;;;24.07;66.05
967;BME280;56108;48.730;9.304;2022-07-29T05:52:59;97481.97;;;24.19;64.52
967;BME280;56108;48.730;9.304;2022-07-29T05:55:23;97487.81;;;25.76;60.17
967;BME280;56108;48.730;9.304;2022-07-29T05:57:34;97502.41;;;26.96;56.06
967;BME280;56108;48.730;9.304;2022-07-29T05:59:44;97496.56;;;26.59;55.44
967;BME280;56108;48.730;9.304;2022-07-29T06:02:17;97490.81;;;26.08;58.29
967;BME280;56108;48.730;9.304;2022-07-29T06:04:27;97498.25;;;26.53;56.58
967;BME280;56108;48.730;9.304;2022-07-29T06:06:39;97498.22;;;26.87;54.00
967;BME280;56108;48.730;9.304;2022-07-29T06:08:47;97504.53;;;26.74;54.51
967;BME280;56108;48.730;9.304;2022-07-29T06:10:57;97508.34;;;28.02;52.51
967;BME280;56108;48.730;9.304;2022-07-29T06:13:05;97502.06;;;25.78;56.39
967;BME280;56108;48.730;9.304;2022-07-29T06:15:16;97497.41;;;25.65;59.03
967;BME280;56108;48.730;9.304;2022-07-29T06:17:24;97492.94;;;25.10;60.10
967;BME280;56108;48.730;9.304;2022-07-29T06:19:34;97507.88;;;26.76;54.58
967;BME280;56108;48.730;9.304;2022-07-29T06:21:46;97491.28;;;25.09;60.52
967;BME280;56108;48.730;9.304;2022-07-29T06:24:03;97507.69;;;26.44;57.61
967;BME280;56108;48.730;9.304;2022-07-29T06:26:12;97515.06;;;27.55;53.37
967;BME280;56108;48.730;9.304;2022-07-29T06:28:21;97504.72;;;26.39;55.06
967;BME280;56108;48.730;9.304;2022-07-29T06:30:30;97513.91;;;26.18;56.44
967;BME280;56108;48.730;9.304;2022-07-29T06:32:37;97510.34;;;27.30;52.96
967;BME280;56108;48.730;9.304;2022-07-29T06:34:47;97528.06;;;28.49;49.50
967;BME280;56108;48.730;9.304;2022-07-29T06:36:57;97528.66;;;28.83;48.32
967;BME280;56108;48.730;9.304;2022-07-29T06:39:09;97545.25;;;28.88;45.87
967;BME280;56108;48.730;9.304;2022-07-29T06:41:17;97531.38;;;28.26;48.08
967;BME280;56108;48.730;9.304;2022-07-29T06:43:25;97540.09;;;28.73;46.31
967;BME280;56108;48.730;9.304;2022-07-29T06:45:36;97542.53;;;28.81;46.81
967;BME280;56108;48.730;9.304;2022-07-29T06:47:46;97543.22;;;29.27;45.56
967;BME280;56108;48.730;9.304;2022-07-29T06:49:54;97567.97;;;32.30;39.25
967;BME280;56108;48.730;9.304;2022-07-29T06:52:05;97573.63;;;33.14;36.80
967;BME280;56108;48.730;9.304;2022-07-29T06:54:13;97578.06;;;33.32;36.45
967;BME280;56108;48.730;9.304;2022-07-29T06:56:23;97576.53;;;33.96;35.31
967;BME280;56108;48.730;9.304;2022-07-29T06:58:31;97584.22;;;34.16;34.44
967;BME280;56108;48.730;9.304;2022-07-29T07:00:39;97580.47;;;35.03;34.31
967;BME280;56108;48.730;9.304;2022-07-29T07:02:48;97579.44;;;35.94;33.54
967;BME280;56108;48.730;9.304;2022-07-29T07:04:56;97579.25;;;35.26;32.87
967;BME280;56108;48.730;9.304;2022-07-29T07:07:08;97583.16;;;34.71;34.73
967;BME280;56108;48.730;9.304;2022-07-29T07:09:16;97578.78;;;32.19;37.60
967;BME280;56108;48.730;9.304;2022-07-29T07:11:24;97555.34;;;30.41;43.14
967;BME280;56108;48.730;9.304;2022-07-29T07:13:32;97540.31;;;29.22;46.27
967;BME280;56108;48.730;9.304;2022-07-29T07:15:41;97538.81;;;27.74;49.45
967;BME280;56108;48.730;9.304;2022-07-29T07:17:50;97523.22;;;27.75;50.83
967;BME280;56108;48.730;9.304;2022-07-29T07:19:59;97527.13;;;27.92;52.40
967;BME280;56108;48.730;9.304;2022-07-29T07:22:09;97525.47;;;27.20;51.80
967;BME280;56108;48.730;9.304;2022-07-29T07:24:18;97522.75;;;28.23;51.07
967;BME280;56108;48.730;9.304;2022-07-29T07:26:27;97534.03;;;28.01;50.60
967;BME280;56108;48.730;9.304;2022-07-29T07:28:35;97532.16;;;29.33;48.49
967;BME280;56108;48.730;9.304;2022-07-29T07:30:44;97544.50;;;27.73;50.51
967;BME280;56108;48.730;9.304;2022-07-29T07:32:52;97517.34;;;26.47;56.24
967;BME280;56108;48.730;9.304;2022-07-29T07:35:00;97517.53;;;25.64;58.99
967;BME280;56108;48.730;9.304;2022-07-29T07:37:11;97535.19;;;25.06;61.18
967;BME280;56108;48.730;9.304;2022-07-29T07:39:19;97539.44;;;25.43;60.47
967;BME280;56108;48.730;9.304;2022-07-29T07:41:29;97542.09;;;24.73;63.43
967;BME280;56108;48.730;9.304;2022-07-29T07:43:39;97547.16;;;24.49;63.48
967;BME280;56108;48.730;9.304;2022-07-29T07:45:49;97540.72;;;23.62;66.85
967;BME280;56108;48.730;9.304;2022-07-29T07:47:57;97538.66;;;23.64;67.17
967;BME280;56108;48.730;9.304;2022-07-29T07:50:12;97538.13;;;24.69;64.52
967;BME280;56108;48.730;9.304;2022-07-29T07:52:25;97537.56;;;25.85;60.84
967;BME280;56108;48.730;9.304;2022-07-29T07:54:33;97545.78;;;27.50;54.79
967;BME280;56108;48.730;9.304;2022-07-29T07:56:41;97555.03;;;28.07;52.45
967;BME280;56108;48.730;9.304;2022-07-29T07:58:51;97545.31;;;27.80;52.35
967;BME280;56108;48.730;9.304;2022-07-29T08:01:00;97542.66;;;26.14;57.39
967;BME280;56108;48.730;9.304;2022-07-29T08:03:08;97533.94;;;25.36;59.17
967;BME280;56108;48.730;9.304;2022-07-29T08:05:21;97540.88;;;26.48;56.77
967;BME280;56108;48.730;9.304;2022-07-29T08:07:33;97552.81;;;27.91;51.81
967;BME280;56108;48.730;9.304;2022-07-29T08:09:41;97553.47;;;28.63;50.23
967;BME280;56108;48.730;9.304;2022-07-29T08:11:49;97545.88;;;27.30;54.31
967;BME280;56108;48.730;9.304;2022-07-29T08:13:57;97545.47;;;26.47;55.68
967;BME280;56108;48.730;9.304;2022-07-29T08:16:06;97555.72;;;28.41;51.82
967;BME280;56108;48.730;9.304;2022-07-29T08:18:20;97560.44;;;29.52;48.35
967;BME280;56108;48.730;9.304;2022-07-29T08:20:28;97550.50;;;27.23;52.43
967;BME280;56108;48.730;9.304;2022-07-29T08:22:40;97541.28;;;26.65;55.78
967;BME280;56108;48.730;9.304;2022-07-29T08:24:48;97548.25;;;27.78;53.63
967;BME280;56108;48.730;9.304;2022-07-29T08:27:00;97552.75;;;28.04;50.77
967;BME280;56108;48.730;9.304;2022-07-29T08:29:29;97543.38;;;26.83;53.60
967;BME280;56108;48.730;9.304;2022-07-29T08:31:44;97551.38;;;27.82;54.37
967;BME280;56108;48.730;9.304;2022-07-29T08:33:53;97554.34;;;28.57;50.28
967;BME280;56108;48.730;9.304;2022-07-29T08:36:03;97548.84;;;27.87;51.23
967;BME280;56108;48.730;9.304;2022-07-29T08:38:14;97541.94;;;29.48;49.41
967;BME280;56108;48.730;9.304;2022-07-29T08:40:22;97568.91;;;29.07;48.65
967;BME280;56108;48.730;9.304;2022-07-29T08:42:36;97542.66;;;27.40;53.14
967;BME280;56108;48.730;9.304;2022-07-29T08:44:44;97534.72;;;27.32;55.85
967;BME280;56108;48.730;9.304;2022-07-29T08:46:52;97535.34;;;26.28;58.74
967;BME280;56108;48.730;9.304;2022-07-29T08:49:01;97526.56;;;24.95;61.97
967;BME280;56108;48.730;9.304;2022-07-29T08:51:13;97536.09;;;24.57;64.22
967;BME280;56108;48.730;9.304;2022-07-29T08:53:26;97535.78;;;24.66;64.38
967;BME280;56108;48.730;9.304;2022-07-29T08:55:35;97543.88;;;24.60;62.56
967;BME280;56108;48.730;9.304;2022-07-29T08:57:44;97543.47;;;24.63;61.48
967;BME280;56108;48.730;9.304;2022-07-29T09:00:00;97529.34;;;25.02;63.34
967;BME280;56108;48.730;9.304;2022-07-29T09:02:19;97532.84;;;25.72;59.17
967;BME280;56108;48.730;9.304;2022-07-29T09:04:30;97532.75;;;25.93;57.74
967;BME280;56108;48.730;9.304;2022-07-29T09:06:43;97535.41;;;26.54;57.13
967;BME280;56108;48.730;9.304;2022-07-29T09:08:56;97548.59;;;26.38;56.71
967;BME280;56108;48.730;9.304;2022-07-29T09:11:08;97553.00;;;26.98;52.82
967;BME280;56108;48.730;9.304;2022-07-29T09:13:17;97551.94;;;27.97;51.88
967;BME280;56108;48.730;9.304;2022-07-29T09:15:25;97566.47;;;29.79;47.26
967;BME280;56108;48.730;9.304;2022-07-29T09:17:39;97575.25;;;29.26;47.70
967;BME280;56108;48.730;9.304;2022-07-29T09:19:47;97571.38;;;29.16;48.37
967;BME280;56108;48.730;9.304;2022-07-29T09:21:58;97577.69;;;28.59;47.85
967;BME280;56108;48.730;9.304;2022-07-29T09:24:11;97560.63;;;29.14;47.85
967;BME280;56108;48.730;9.304;2022-07-29T09:26:19;97560.44;;;29.34;46.84
967;BME280;56108;48.730;9.304;2022-07-29T09:28:42;97565.63;;;30.46;47.15
967;BME280;56108;48.730;9.304;2022-07-29T09:30:50;97580.03;;;30.41;44.84
967;BME280;56108;48.730;9.304;2022-07-29T09:33:01;97582.06;;;30.34;42.95
967;BME280;56108;48.730;9.304;2022-07-29T09:35:21;97579.41;;;29.90;44.71
967;BME280;56108;48.730;9.304;2022-07-29T09:37:29;97573.03;;;30.45;44.03
967;BME280;56108;48.730;9.304;2022-07-29T09:39:40;97578.22;;;31.42;41.46
967;BME280;56108;48.730;9.304;2022-07-29T09:41:52;97588.56;;;32.39;39.30
967;BME280;56108;48.730;9.304;2022-07-29T09:44:01;97574.72;;;33.30;40.38
967;BME280;56108;48.730;9.304;2022-07-29T09:46:11;97581.56;;;33.83;39.12
967;BME280;56108;48.730;9.304;2022-07-29T09:48:22;97595.69;;;32.97;37.04
967;BME280;56108;48.730;9.304;2022-07-29T09:50:40;97589.19;;;33.37;36.50
967;BME280;56108;48.730;9.304;2022-07-29T09:52:50;97592.03;;;34.24;34.73
967;BME280;56108;48.730;9.304;2022-07-29T09:55:12;97580.03;;;34.90;35.84
967;BME280;56108;48.730;9.304;2022-07-29T09:57:27;97583.13;;;35.25;35.21
967;BME280;56108;48.730;9.304;2022-07-29T09:59:37;97572.63;;;33.20;36.51
967;BME280;56108;48.730;9.304;2022-07-29T10:01:54;97578.69;;;33.00;38.04
967;BME280;56108;48.730;9.304;2022-07-29T10:04:03;97570.97;;;32.57;39.72
967;BME280;56108;48.730;9.304;2022-07-29T10:06:11;97563.59;;;29.56;43.33
967;BME280;56108;48.730;9.304;2022-07-29T10:08:25;97538.50;;;29.34;46.34
967;BME280;56108;48.730;9.304;2022-07-29T10:10:38;97538.00;;;29.00;46.55
967;BME280;56108;48.730;9.304;2022-07-29T10:12:55;97551.81;;;31.29;42.11
967;BME280;56108;48.730;9.304;2022-07-29T10:15:10;97551.28;;;29.95;43.67
967;BME280;56108;48.730;9.304;2022-07-29T10:17:19;97539.97;;;30.52;43.06
967;BME280;56108;48.730;9.304;2022-07-29T10:19:28;97544.84;;;31.15;41.72
967;BME280;56108;48.730;9.304;2022-07-29T10:21:39;97542.41;;;30.11;44.45
967;BME280;56108;48.730;9.304;2022-07-29T10:23:49;97530.88;;;31.40;44.18
967;BME280;56108;48.730;9.304;2022-07-29T10:26:06;97544.94;;;32.47;41.57
967;BME280;56108;48.730;9.304;2022-07-29T10:28:17;97533.50;;;30.46;42.04
967;BME280;56108;48.730;9.304;2022-07-29T10:30:25;97532.06;;;29.03;44.93
967;BME280;56108;48.730;9.304;2022-07-29T10:32:40;97522.38;;;28.19;47.27
967;BME280;56108;48.730;9.304;2022-07-29T10:35:08;97514.34;;;28.24;47.48
967;BME280;56108;48.730;9.304;2022-07-29T10:37:26;97510.63;;;29.19;46.66
967;BME280;56108;48.730;9.304;2022-07-29T10:39:48;97518.06;;;29.85;47.21
967;BME280;56108;48.730;9.304;2022-07-29T10:42:13;97524.66;;;30.98;45.92
967;BME280;56108;48.730;9.304;2022-07-29T10:44:24;97528.06;;;30.70;41.43
967;BME280;56108;48.730;9.304;2022-07-29T10:46:35;97517.81;;;29.56;43.93
967;BME280;56108;48.730;9.304;2022-07-29T10:49:06;97493.75;;;27.19;49.02
967;BME280;56108;48.730;9.304;2022-07-29T10:51:19;97493.97;;;27.17;49.85
967;BME280;56108;48.730;9.304;2022-07-29T10:53:48;97488.75;;;27.61;50.04
967;BME280;56108;48.730;9.304;2022-07-29T10:55:57;97493.19;;;26.84;49.45
967;BME280;56108;48.730;9.304;2022-07-29T10:58:17;97470.31;;;26.65;51.64
967;BME280;56108;48.730;9.304;2022-07-29T11:00:31;97488.75;;;26.36;50.77
967;BME280;56108;48.730;9.304;2022-07-29T11:02:46;97490.06;;;26.53;49.91
967;BME280;56108;48.730;9.304;2022-07-29T11:05:01;97501.59;;;26.56;50.01
967;BME280;56108;48.730;9.304;2022-07-29T11:07:11;97496.75;;;26.77;50.09
967;BME280;56108;48.730;9.304;2022-07-29T11:09:21;97484.13;;;26.90;53.08
967;BME280;56108;48.730;9.304;2022-07-29T11:11:41;97482.84;;;27.05;53.58
967;BME280;56108;48.730;9.304;2022-07-29T11:13:58;97480.53;;;27.02;55.69
967;BME280;56108;48.730;9.304;2022-07-29T11:16:07;97488.75;;;26.83;56.47
967;BME280;56108;48.730;9.304;2022-07-29T11:18:20;97505.78;;;26.32;53.80
967;BME280;56108;48.730;9.304;2022-07-29T11:20:35;97513.75;;;25.59;55.89
967;BME280;56108;48.730;9.304;2022-07-29T11:22:45;97520.47;;;24.93;55.31
967;BME280;56108;48.730;9.304;2022-07-29T11:25:12;97521.34;;;24.23;55.90
967;BME280;56108;48.730;9.304;2022-07-29T11:27:21;97548.00;;;23.91;55.61
967;BME280;56108;48.730;9.304;2022-07-29T11:29:39;97562.06;;;21.46;67.76
967;BME280;56108;48.730;9.304;2022-07-29T11:32:08;97645.44;;;19.01;75.48
967;BME280;56108;48.730;9.304;2022-07-29T11:34:24;97662.63;;;17.93;79.07
967;BME280;56108;48.730;9.304;2022-07-29T11:39:25;97533.28;;;16.75;78.77
967;BME280;56108;48.730;9.304;2022-07-29T11:41:41;97537.72;;;16.56;79.06
967;BME280;56108;48.730;9.304;2022-07-29T11:43:51;97529.41;;;16.40;82.69
967;BME280;56108;48.730;9.304;2022-07-29T11:46:02;97539.84;;;16.43;86.43
967;BME280;56108;48.730;9.304;2022-07-29T11:48:18;97562.34;;;16.23;90.44
967;BME280;56108;48.730;9.304;2022-07-29T11:50:36;97547.38;;;16.30;91.79
967;BME280;56108;48.730;9.304;2022-07-29T11:52:48;97549.66;;;16.25;92.76
967;BME280;56108;48.730;9.304;2022-07-29T11:54:58;97550.22;;;16.18;93.56
967;BME280;56108;48.730;9.304;2022-07-29T11:57:14;97560.81;;;16.39;95.79
967;BME280;56108;48.730;9.304;2022-07-29T11:59:25;97563.34;;;16.31;95.52